| time (UTC) | temp C | wind direction | speed KPH | gust KPH | rain 1hr cm | rain 24hr cm | rain mn cm | humidity % | barometer mb |
| 20260503072810 | 18 | 34 | 11.3 | 22.5 | 0.00 | 0.03 | 0.03 | 97 | 1014.1 |
| 20260503072310 | 18 | 15 | 11.3 | 19.3 | 0.00 | 0.03 | 0.03 | 97 | 1014.0 |
| 20260503072007 | 19 | 340 | 12.9 | 20.9 | 0.00 | 0.03 | 0.03 | 96 | 1013.9 |
| 20260503071810 | 19 | 336 | 12.9 | 22.5 | 0.00 | 0.03 | 0.03 | 97 | 1013.9 |
| 20260503071310 | 19 | 340 | 12.9 | 20.9 | 0.00 | 0.03 | 0.03 | 96 | 1013.9 |
| 20260503071150 | 19 | 15 | 12.9 | 25.7 | 0.00 | 0.03 | 0.03 | 96 | 1013.9 |
| 20260503070810 | 19 | 15 | 12.9 | 25.7 | 0.00 | 0.03 | 0.03 | 96 | 1013.9 |
| 20260503070517 | 20 | 319 | 6.4 | 12.9 | 0.00 | 0.03 | 0.03 | 97 | 1014.1 |
| 20260503070310 | 20 | 337 | 9.7 | 17.7 | 0.00 | 0.03 | 0.03 | 97 | 1014.0 |
| 20260503060310 | 20 | 294 | 4.8 | 8.0 | 0.00 | 0.03 | 0.03 | 96 | 1014.0 |
| 20260503054810 | 20 | 317 | 4.8 | 6.4 | 0.00 | 0.03 | 0.03 | 96 | 1014.2 |
| 20260503054355 | 20 | 328 | 4.8 | 8.0 | 0.00 | 0.03 | 0.03 | 96 | 1014.2 |
| 20260503054310 | 20 | 328 | 4.8 | 8.0 | 0.00 | 0.03 | 0.03 | 96 | 1014.2 |
| 20260503053810 | 20 | 51 | 4.8 | 6.4 | 0.00 | 0.03 | 0.03 | 96 | 1014.1 |
| 20260503053310 | 20 | 335 | 4.8 | 8.0 | 0.00 | 0.03 | 0.03 | 96 | 1014.0 |
| 20260503052933 | 21 | 336 | 6.4 | 9.7 | 0.00 | 0.03 | 0.03 | 95 | 1014.8 |
| 20260503052810 | 20 | 317 | 4.8 | 6.4 | 0.00 | 0.03 | 0.03 | 96 | 1014.2 |
| 20260503052310 | 20 | 309 | 4.8 | 6.4 | 0.00 | 0.03 | 0.03 | 96 | 1014.3 |
| 20260503051810 | 20 | 321 | 4.8 | 6.4 | 0.00 | 0.03 | 0.03 | 95 | 1014.3 |
| 20260503051311 | 21 | 323 | 6.4 | 8.0 | 0.00 | 0.03 | 0.03 | 95 | 1014.6 |
| 20260503050810 | 21 | 336 | 6.4 | 9.7 | 0.00 | 0.03 | 0.03 | 95 | 1014.8 |
| 20260503050311 | 21 | 312 | 4.8 | 9.7 | 0.00 | 0.03 | 0.03 | 95 | 1014.6 |
| 20260503045811 | 21 | 325 | 4.8 | 8.0 | 0.00 | 0.03 | 0.03 | 95 | 1014.5 |
| 20260503045311 | 21 | 325 | 4.8 | 6.4 | 0.00 | 0.03 | 0.03 | 94 | 1014.6 |
| 20260503044811 | 21 | 323 | 4.8 | 11.3 | 0.00 | 0.03 | 0.03 | 94 | 1014.7 |
| 20260503044311 | 21 | 294 | 4.8 | 9.7 | 0.00 | 0.03 | 0.03 | 94 | 1014.6 |
| 20260503043811 | 21 | 296 | 3.2 | 8.0 | 0.00 | 0.03 | 0.03 | 94 | 1014.4 |
| 20260503043311 | 21 | 296 | 3.2 | 4.8 | 0.00 | 0.03 | 0.03 | 94 | 1014.4 |
| 20260503042811 | 21 | 196 | 3.2 | 8.0 | 0.00 | 0.03 | 0.03 | 94 | 1014.3 |
| 20260503042700 | 21 | 178 | 3.2 | 6.4 | 0.00 | 0.03 | 0.03 | 94 | 1014.3 |
| 20260503042311 | 21 | 178 | 3.2 | 6.4 | 0.00 | 0.03 | 0.03 | 94 | 1014.3 |
| 20260503041811 | 21 | 195 | 3.2 | 6.4 | 0.00 | 0.03 | 0.03 | 94 | 1014.6 |
| 20260503041450 | 21 | 212 | 3.2 | 6.4 | 0.00 | 0.03 | 0.03 | 94 | 1014.4 |
| 20260503041311 | 21 | 212 | 3.2 | 6.4 | 0.00 | 0.03 | 0.03 | 94 | 1014.4 |
| 20260503041132 | 21 | 178 | 3.2 | 8.0 | 0.00 | 0.03 | 0.03 | 94 | 1014.2 |
| 20260503040811 | 21 | 178 | 3.2 | 8.0 | 0.00 | 0.03 | 0.03 | 94 | 1014.4 |
| 20260503040311 | 21 | 178 | 3.2 | 8.0 | 0.00 | 0.03 | 0.03 | 94 | 1014.2 |
| 20260503040256 | 21 | 230 | 3.2 | 6.4 | 0.00 | 0.03 | 0.03 | 94 | 1014.2 |
| 20260503035811 | 21 | 230 | 3.2 | 6.4 | 0.00 | 0.03 | 0.03 | 94 | 1014.2 |
| 20260503035311 | 21 | 193 | 4.8 | 8.0 | 0.00 | 0.03 | 0.03 | 94 | 1014.0 |
| 20260503034811 | 21 | 203 | 4.8 | 8.0 | 0.00 | 0.03 | 0.03 | 94 | 1013.8 |
| 20260503034742 | 21 | 200 | 4.8 | 8.0 | 0.00 | 0.03 | 0.03 | 94 | 1013.7 |
| 20260503034311 | 21 | 200 | 4.8 | 8.0 | 0.00 | 0.03 | 0.03 | 94 | 1013.7 |
| 20260503034258 | 21 | 195 | 4.8 | 8.0 | 0.00 | 0.03 | 0.03 | 94 | 1013.4 |
| 20260503033811 | 21 | 195 | 4.8 | 8.0 | 0.00 | 0.03 | 0.03 | 94 | 1013.4 |
| 20260503033611 | 21 | 184 | 4.8 | 11.3 | 0.00 | 0.03 | 0.03 | 94 | 1013.3 |
| 20260503033311 | 21 | 184 | 4.8 | 11.3 | 0.00 | 0.03 | 0.03 | 94 | 1013.3 |
| 20260503032811 | 21 | 174 | 4.8 | 8.0 | 0.00 | 0.03 | 0.03 | 94 | 1013.2 |
| 20260503032311 | 21 | 164 | 3.2 | 8.0 | 0.00 | 0.03 | 0.03 | 94 | 1013.1 |
| 20260503031811 | 21 | 165 | 3.2 | 6.4 | 0.00 | 0.03 | 0.03 | 94 | 1013.3 |
| 20260503031311 | 21 | 196 | 3.2 | 6.4 | 0.00 | 0.03 | 0.03 | 94 | 1013.2 |
| 20260503030811 | 21 | 193 | 3.2 | 4.8 | 0.00 | 0.03 | 0.03 | 94 | 1013.0 |
| 20260503030311 | 21 | 196 | 3.2 | 8.0 | 0.00 | 0.03 | 0.03 | 94 | 1013.0 |
| 20260503025811 | 21 | 183 | 3.2 | 8.0 | 0.00 | 0.03 | 0.03 | 94 | 1012.9 |
| 20260503025534 | 21 | 221 | 3.2 | 9.7 | 0.00 | 0.03 | 0.03 | 94 | 1013.2 |
| 20260503025311 | 21 | 221 | 3.2 | 9.7 | 0.00 | 0.03 | 0.03 | 94 | 1013.2 |
| 20260503025029 | 20 | 217 | 6.4 | 14.5 | 0.00 | 0.03 | 0.03 | 94 | 1013.3 |
| 20260503025016 | 21 | 230 | 6.4 | 9.7 | 0.00 | 0.03 | 0.03 | 94 | 1013.3 |
| 20260503024811 | 21 | 164 | 4.8 | 8.0 | 0.00 | 0.03 | 0.03 | 94 | 1013.3 |
| 20260503024311 | 21 | 230 | 6.4 | 9.7 | 0.00 | 0.03 | 0.03 | 94 | 1013.3 |
| 20260503023811 | 20 | 217 | 6.4 | 14.5 | 0.00 | 0.03 | 0.03 | 94 | 1013.3 |
| 20260503023311 | 20 | 227 | 6.4 | 11.3 | 0.03 | 0.03 | 0.03 | 94 | 1013.3 |
| 20260503022811 | 20 | 287 | 6.4 | 12.9 | 0.03 | 0.03 | 0.03 | 94 | 1013.2 |
| 20260503022311 | 20 | 225 | 6.4 | 12.9 | 0.03 | 0.03 | 0.03 | 95 | 1013.5 |
| 20260503022143 | 20 | 230 | 4.8 | 9.7 | 0.03 | 0.03 | 0.03 | 95 | 1013.1 |
| 20260503021811 | 20 | 171 | 4.8 | 8.0 | 0.03 | 0.03 | 0.03 | 95 | 1013.4 |
| 20260503021311 | 20 | 230 | 4.8 | 9.7 | 0.03 | 0.03 | 0.03 | 95 | 1013.1 |
| 20260503020811 | 20 | 193 | 4.8 | 9.7 | 0.03 | 0.03 | 0.03 | 95 | 1012.7 |
| 20260503020311 | 20 | 205 | 4.8 | 8.0 | 0.03 | 0.03 | 0.03 | 95 | 1012.5 |
| 20260503015811 | 20 | 250 | 4.8 | 9.7 | 0.03 | 0.03 | 0.03 | 95 | 1012.5 |
| 20260503015311 | 20 | 237 | 6.4 | 8.0 | 0.03 | 0.03 | 0.03 | 96 | 1012.5 |
| 20260503014811 | 20 | 196 | 6.4 | 11.3 | 0.03 | 0.03 | 0.03 | 96 | 1012.4 |
| 20260503014311 | 20 | 208 | 4.8 | 8.0 | 0.03 | 0.03 | 0.03 | 96 | 1012.4 |
| 20260503014150 | 20 | 221 | 4.8 | 9.7 | 0.03 | 0.03 | 0.03 | 96 | 1012.3 |
| 20260503014129 | 20 | 178 | 4.8 | 9.7 | 0.00 | 0.00 | 0.00 | 96 | 1012.3 |
| 20260503013811 | 20 | 221 | 4.8 | 9.7 | 0.03 | 0.03 | 0.03 | 96 | 1012.3 |
| 20260503013311 | 20 | 225 | 4.8 | 9.7 | 0.00 | 0.00 | 0.00 | 96 | 1012.1 |
| 20260503013241 | 20 | 221 | 4.8 | 9.7 | 0.00 | 0.00 | 0.00 | 96 | 1012.3 |
| 20260503013021 | 20 | 178 | 4.8 | 9.7 | 0.00 | 0.00 | 0.00 | 96 | 1012.3 |
| 20260503012813 | 20 | 221 | 4.8 | 9.7 | 0.00 | 0.00 | 0.00 | 96 | 1012.3 |
| 20260503012311 | 20 | 178 | 4.8 | 9.7 | 0.00 | 0.00 | 0.00 | 96 | 1012.3 |
| 20260503011811 | 20 | 246 | 4.8 | 12.9 | 0.00 | 0.00 | 0.00 | 96 | 1012.1 |
| 20260503011311 | 20 | 193 | 6.4 | 11.3 | 0.00 | 0.00 | 0.00 | 96 | 1012.2 |
| 20260503010956 | 20 | 257 | 6.4 | 11.3 | 0.00 | 0.00 | 0.00 | 96 | 1012.1 |
| 20260503010811 | 20 | 257 | 6.4 | 11.3 | 0.00 | 0.00 | 0.00 | 96 | 1012.1 |
| 20260503010311 | 20 | 237 | 4.8 | 9.7 | 0.00 | 0.00 | 0.00 | 96 | 1012.0 |
| 20260503005811 | 20 | 246 | 4.8 | 9.7 | 0.00 | 0.00 | 0.00 | 96 | 1011.9 |
| 20260503005311 | 20 | 227 | 6.4 | 11.3 | 0.00 | 0.00 | 0.00 | 96 | 1012.1 |
| 20260503004811 | 20 | 244 | 6.4 | 12.9 | 0.00 | 0.00 | 0.00 | 96 | 1012.0 |
| 20260503004311 | 20 | 219 | 8.0 | 14.5 | 0.00 | 0.00 | 0.00 | 96 | 1012.2 |
| 20260503004308 | 20 | 234 | 8.0 | 17.7 | 0.00 | 0.00 | 0.00 | 96 | 1012.2 |
| 20260503003811 | 20 | 234 | 8.0 | 17.7 | 0.00 | 0.00 | 0.00 | 96 | 1012.2 |
| 20260503003311 | 20 | 227 | 6.4 | 11.3 | 0.00 | 0.00 | 0.00 | 95 | 1012.0 |
| 20260503002811 | 20 | 185 | 4.8 | 11.3 | 0.00 | 0.00 | 0.00 | 95 | 1011.4 |
| 20260503002311 | 20 | 137 | 4.8 | 8.0 | 0.00 | 0.00 | 0.00 | 95 | 1010.6 |
| 20260503001811 | 20 | 227 | 8.0 | 14.5 | 0.00 | 0.00 | 0.00 | 95 | 1010.8 |
| 20260503001311 | 20 | 270 | 9.7 | 17.7 | 0.00 | 0.00 | 0.00 | 95 | 1010.8 |
| 20260503000811 | 21 | 124 | 9.7 | 20.9 | 0.00 | 0.00 | 0.00 | 95 | 1009.2 |
| 20260503000311 | 21 | 126 | 9.7 | 17.7 | 0.00 | 0.00 | 0.00 | 96 | 1009.8 |
| 20260502235811 | 20 | 146 | 8.0 | 14.5 | 0.00 | 0.00 | 0.00 | 95 | 1010.7 |
| 20260502235311 | 21 | 151 | 6.4 | 14.5 | 0.00 | 0.00 | 0.00 | 95 | 1011.1 |
| 20260502234811 | 21 | 230 | 6.4 | 9.7 | 0.00 | 0.00 | 0.00 | 96 | 1011.5 |
| 20260502234311 | 21 | 195 | 8.0 | 14.5 | 0.00 | 0.00 | 0.00 | 96 | 1011.1 |
| 20260502233811 | 21 | 167 | 8.0 | 12.9 | 0.00 | 0.00 | 0.00 | 96 | 1011.2 |
| 20260502233311 | 21 | 162 | 8.0 | 12.9 | 0.00 | 0.00 | 0.00 | 96 | 1011.4 |
| 20260502232811 | 21 | 165 | 6.4 | 16.1 | 0.00 | 0.00 | 0.00 | 96 | 1011.2 |
| 20260502232311 | 21 | 167 | 6.4 | 9.7 | 0.00 | 0.00 | 0.00 | 96 | 1011.1 |
| 20260502231811 | 21 | 144 | 9.7 | 12.9 | 0.00 | 0.00 | 0.00 | 96 | 1010.5 |
| 20260502231311 | 21 | 144 | 8.0 | 16.1 | 0.00 | 0.00 | 0.00 | 96 | 1011.0 |
| 20260502230811 | 21 | 153 | 4.8 | 12.9 | 0.00 | 0.00 | 0.00 | 96 | 1011.4 |
| 20260502230311 | 21 | 173 | 1.6 | 4.8 | 0.00 | 0.00 | 0.00 | 96 | 1011.3 |
| 20260502225858 | 21 | 238 | 3.2 | 4.8 | 0.00 | 0.00 | 0.00 | 96 | 1011.4 |
| 20260502225811 | 21 | 129 | 3.2 | 4.8 | 0.00 | 0.00 | 0.00 | 96 | 1011.1 |
| 20260502225311 | 21 | 219 | 3.2 | 8.0 | 0.00 | 0.00 | 0.00 | 96 | 1011.3 |
| 20260502224811 | 21 | 238 | 3.2 | 4.8 | 0.00 | 0.00 | 0.00 | 96 | 1011.4 |
| 20260502224652 | 21 | 287 | 1.6 | 4.8 | 0.00 | 0.00 | 0.00 | 95 | 1011.2 |
| 20260502224311 | 21 | 287 | 1.6 | 4.8 | 0.00 | 0.00 | 0.00 | 95 | 1011.2 |
| 20260502223913 | 21 | 169 | 1.6 | 4.8 | 0.00 | 0.00 | 0.00 | 95 | 1011.1 |
| 20260502223811 | 21 | 169 | 1.6 | 4.8 | 0.00 | 0.00 | 0.00 | 95 | 1011.1 |
| 20260502223311 | 21 | 178 | 3.2 | 4.8 | 0.00 | 0.00 | 0.00 | 95 | 1011.2 |
| 20260502222943 | 21 | 149 | 6.4 | 9.7 | 0.00 | 0.00 | 0.00 | 95 | 1011.0 |
| 20260502222811 | 21 | 149 | 6.4 | 9.7 | 0.00 | 0.00 | 0.00 | 95 | 1011.0 |
| 20260502222311 | 21 | 234 | 11.3 | 14.5 | 0.00 | 0.00 | 0.00 | 95 | 1010.9 |
| 20260502221811 | 21 | 147 | 16.1 | 19.3 | 0.00 | 0.00 | 0.00 | 95 | 1010.8 |
| 20260502221311 | 21 | 149 | 14.5 | 22.5 | 0.00 | 0.00 | 0.00 | 95 | 1010.9 |
| 20260502221231 | 21 | 141 | 11.3 | 19.3 | 0.00 | 0.00 | 0.00 | 95 | 1011.1 |
| 20260502221158 | 21 | 141 | 11.3 | 19.3 | 0.00 | 0.00 | 0.00 | 95 | 1011.1 |
| 20260502220811 | 21 | 141 | 11.3 | 19.3 | 0.00 | 0.00 | 0.00 | 95 | 1011.1 |
| 20260502220311 | 21 | 146 | 9.7 | 16.1 | 0.00 | 0.00 | 0.00 | 95 | 1011.2 |
| 20260502215811 | 21 | 182 | 8.0 | 14.5 | 0.00 | 0.00 | 0.00 | 95 | 1011.2 |
| 20260502215311 | 21 | 144 | 4.8 | 11.3 | 0.00 | 0.00 | 0.00 | 95 | 1011.2 |
| 20260502214811 | 21 | 229 | 6.4 | 11.3 | 0.00 | 0.00 | 0.00 | 95 | 1011.6 |
| 20260502214311 | 21 | 196 | 8.0 | 17.7 | 0.00 | 0.00 | 0.00 | 95 | 1011.6 |
| 20260502213811 | 21 | 202 | 6.4 | 12.9 | 0.00 | 0.00 | 0.00 | 94 | 1011.9 |
| 20260502213311 | 21 | 218 | 6.4 | 11.3 | 0.00 | 0.00 | 0.00 | 94 | 1011.7 |
| 20260502212843 | 21 | 221 | 6.4 | 12.9 | 0.00 | 0.00 | 0.00 | 93 | 1011.7 |
| 20260502212811 | 21 | 221 | 6.4 | 12.9 | 0.00 | 0.00 | 0.00 | 93 | 1011.7 |
| 20260502212616 | 21 | 243 | 8.0 | 14.5 | 0.00 | 0.00 | 0.00 | 93 | 1011.6 |
| 20260502212311 | 21 | 243 | 8.0 | 14.5 | 0.00 | 0.00 | 0.00 | 93 | 1011.6 |
| 20260502211811 | 21 | 271 | 9.7 | 14.5 | 0.00 | 0.00 | 0.00 | 92 | 1011.6 |
| 20260502211311 | 21 | 221 | 12.9 | 19.3 | 0.00 | 0.00 | 0.00 | 91 | 1011.3 |
| 20260502210811 | 21 | 251 | 14.5 | 25.7 | 0.00 | 0.00 | 0.00 | 90 | 1011.3 |
| 20260502210339 | 23 | 311 | 17.7 | 29.0 | 0.00 | 0.00 | 0.00 | 80 | 1011.4 |
| 20260502210311 | 22 | 286 | 11.3 | 24.1 | 0.00 | 0.00 | 0.00 | 88 | 1011.4 |
| 20260502205811 | 22 | 263 | 11.3 | 19.3 | 0.00 | 0.00 | 0.00 | 87 | 1011.2 |
| 20260502205344 | 22 | 262 | 14.5 | 22.5 | 0.00 | 0.00 | 0.00 | 85 | 1011.3 |
| 20260502205311 | 22 | 262 | 14.5 | 22.5 | 0.00 | 0.00 | 0.00 | 85 | 1011.3 |
| 20260502204811 | 23 | 191 | 16.1 | 29.0 | 0.00 | 0.00 | 0.00 | 83 | 1011.2 |
| 20260502204311 | 23 | 311 | 17.7 | 29.0 | 0.00 | 0.00 | 0.00 | 80 | 1011.4 |
| 20260502204024 | 25 | 269 | 16.1 | 32.2 | 0.00 | 0.00 | 0.00 | 77 | 1011.4 |
| 20260502203811 | 25 | 269 | 16.1 | 32.2 | 0.00 | 0.00 | 0.00 | 77 | 1011.4 |
| 20260502203311 | 26 | 326 | 9.7 | 27.4 | 0.00 | 0.00 | 0.00 | 76 | 1011.3 |
| 20260502202811 | 27 | 255 | 8.0 | 17.7 | 0.00 | 0.00 | 0.00 | 76 | 1011.0 |
| 20260502202311 | 27 | 259 | 8.0 | 16.1 | 0.00 | 0.00 | 0.00 | 76 | 1011.1 |
| 20260502201811 | 27 | 298 | 6.4 | 12.9 | 0.00 | 0.00 | 0.00 | 74 | 1010.9 |
| 20260502201556 | 27 | 239 | 9.7 | 19.3 | 0.00 | 0.00 | 0.00 | 71 | 1010.9 |
| 20260502201311 | 27 | 259 | 9.7 | 17.7 | 0.00 | 0.00 | 0.00 | 72 | 1011.0 |
| 20260502201017 | 27 | 255 | 11.3 | 22.5 | 0.00 | 0.00 | 0.00 | 71 | 1011.1 |
| 20260502200811 | 27 | 255 | 11.3 | 22.5 | 0.00 | 0.00 | 0.00 | 71 | 1011.1 |
| 20260502200311 | 27 | 269 | 11.3 | 22.5 | 0.00 | 0.00 | 0.00 | 71 | 1011.0 |
| 20260502195812 | 27 | 203 | 11.3 | 24.1 | 0.00 | 0.00 | 0.00 | 71 | 1010.9 |
| 20260502195311 | 27 | 239 | 9.7 | 19.3 | 0.00 | 0.00 | 0.00 | 71 | 1010.9 |
| 20260502194812 | 27 | 239 | 11.3 | 17.7 | 0.00 | 0.00 | 0.00 | 70 | 1010.9 |
| 20260502194524 | 28 | 268 | 11.3 | 17.7 | 0.00 | 0.00 | 0.00 | 69 | 1011.0 |
| 20260502194311 | 28 | 246 | 9.7 | 20.9 | 0.00 | 0.00 | 0.00 | 70 | 1010.9 |
| 20260502193812 | 28 | 268 | 11.3 | 17.7 | 0.00 | 0.00 | 0.00 | 69 | 1011.0 |
| 20260502193312 | 28 | 286 | 11.3 | 22.5 | 0.00 | 0.00 | 0.00 | 68 | 1011.0 |
| 20260502192812 | 28 | 261 | 9.7 | 17.7 | 0.00 | 0.00 | 0.00 | 69 | 1011.0 |
| 20260502192311 | 28 | 234 | 9.7 | 19.3 | 0.00 | 0.00 | 0.00 | 68 | 1011.0 |
| 20260502191812 | 28 | 241 | 11.3 | 16.1 | 0.00 | 0.00 | 0.00 | 68 | 1011.2 |
| 20260502191425 | 28 | 230 | 11.3 | 22.5 | 0.00 | 0.00 | 0.00 | 68 | 1011.2 |
| 20260502191312 | 28 | 225 | 12.9 | 19.3 | 0.00 | 0.00 | 0.00 | 67 | 1011.2 |
| 20260502190812 | 28 | 242 | 11.3 | 22.5 | 0.00 | 0.00 | 0.00 | 68 | 1011.0 |
| 20260502190312 | 28 | 286 | 11.3 | 17.7 | 0.00 | 0.00 | 0.00 | 68 | 1011.2 |
| 20260502185812 | 28 | 230 | 11.3 | 22.5 | 0.00 | 0.00 | 0.00 | 68 | 1011.2 |
| 20260502185430 | 29 | 259 | 16.1 | 29.0 | 0.00 | 0.00 | 0.00 | 65 | 1011.2 |
| 20260502185312 | 28 | 225 | 11.3 | 20.9 | 0.00 | 0.00 | 0.00 | 67 | 1011.2 |
| 20260502184812 | 28 | 265 | 12.9 | 20.9 | 0.00 | 0.00 | 0.00 | 67 | 1011.3 |
| 20260502184312 | 28 | 238 | 14.5 | 25.7 | 0.00 | 0.00 | 0.00 | 66 | 1011.2 |
| 20260502183812 | 29 | 239 | 12.9 | 30.6 | 0.00 | 0.00 | 0.00 | 65 | 1011.2 |
| 20260502183312 | 29 | 282 | 14.5 | 24.1 | 0.00 | 0.00 | 0.00 | 65 | 1011.1 |
| 20260502182812 | 29 | 259 | 16.1 | 29.0 | 0.00 | 0.00 | 0.00 | 65 | 1011.2 |
| 20260502182312 | 29 | 232 | 14.5 | 32.2 | 0.00 | 0.00 | 0.00 | 64 | 1011.3 |
| 20260502181812 | 29 | 229 | 16.1 | 27.4 | 0.00 | 0.00 | 0.00 | 64 | 1011.4 |
| 20260502181312 | 29 | 246 | 16.1 | 30.6 | 0.00 | 0.00 | 0.00 | 63 | 1011.4 |
| 20260502180812 | 29 | 254 | 16.1 | 27.4 | 0.00 | 0.00 | 0.00 | 64 | 1011.3 |
| 20260502180312 | 29 | 252 | 19.3 | 30.6 | 0.00 | 0.00 | 0.00 | 63 | 1011.2 |
| 20260502170312 | 30 | 216 | 20.9 | 40.2 | 0.00 | 0.00 | 0.00 | 64 | 1011.6 |
| 20260502164312 | 30 | 243 | 19.3 | 37.0 | 0.00 | 0.00 | 0.00 | 63 | 1011.5 |
| 20260502163812 | 30 | 225 | 17.7 | 43.5 | 0.00 | 0.00 | 0.00 | 63 | 1011.3 |
| 20260502163312 | 30 | 252 | 17.7 | 43.5 | 0.00 | 0.00 | 0.00 | 63 | 1011.4 |
| 20260502162812 | 30 | 203 | 14.5 | 30.6 | 0.00 | 0.00 | 0.00 | 64 | 1011.6 |
| 20260502162312 | 30 | 196 | 12.9 | 22.5 | 0.00 | 0.00 | 0.00 | 66 | 1011.4 |
| 20260502161812 | 30 | 186 | 16.1 | 24.1 | 0.00 | 0.00 | 0.00 | 66 | 1011.5 |
| 20260502161312 | 30 | 148 | 16.1 | 32.2 | 0.00 | 0.00 | 0.00 | 66 | 1011.6 |
| 20260502160812 | 29 | 198 | 14.5 | 33.8 | 0.00 | 0.00 | 0.00 | 68 | 1011.7 |
| 20260502160312 | 28 | 201 | 11.3 | 20.9 | 0.00 | 0.00 | 0.00 | 68 | 1011.7 |
| 20260502152312 | 28 | 226 | 12.9 | 27.4 | 0.00 | 0.00 | 0.00 | 71 | 1011.7 |
| 20260502151812 | 28 | 221 | 14.5 | 29.0 | 0.00 | 0.00 | 0.00 | 71 | 1011.6 |
| 20260502151312 | 28 | 216 | 16.1 | 33.8 | 0.00 | 0.00 | 0.00 | 69 | 1011.7 |
| 20260502150812 | 28 | 223 | 17.7 | 29.0 | 0.00 | 0.00 | 0.00 | 69 | 1011.5 |
| 20260502150555 | 28 | 212 | 14.5 | 27.4 | 0.00 | 0.00 | 0.00 | 71 | 1011.7 |
| 20260502150312 | 28 | 212 | 14.5 | 27.4 | 0.00 | 0.00 | 0.00 | 71 | 1011.7 |
| 20260502130312 | 22 | 132 | 8.0 | 16.1 | 0.00 | 0.00 | 0.00 | 89 | 1010.8 |
| 20260502123812 | 21 | 196 | 6.4 | 14.5 | 0.00 | 0.00 | 0.00 | 95 | 1010.6 |
| 20260502123312 | 21 | 214 | 8.0 | 14.5 | 0.00 | 0.00 | 0.00 | 97 | 1010.7 |
| 20260502122812 | 21 | 172 | 8.0 | 16.1 | 0.00 | 0.00 | 0.00 | 97 | 1010.8 |
| 20260502122312 | 20 | 153 | 8.0 | 16.1 | 0.00 | 0.00 | 0.00 | 97 | 1010.6 |
| 20260502121812 | 20 | 133 | 8.0 | 16.1 | 0.00 | 0.00 | 0.00 | 98 | 1010.4 |
| 20260502121521 | 20 | 142 | 6.4 | 14.5 | 0.00 | 0.00 | 0.00 | 97 | 1010.6 |
| 20260502121312 | 20 | 142 | 6.4 | 14.5 | 0.00 | 0.00 | 0.00 | 97 | 1010.6 |
| 20260502120812 | 20 | 153 | 6.4 | 11.3 | 0.00 | 0.00 | 0.00 | 98 | 1010.6 |
| 20260502120312 | 20 | 160 | 6.4 | 11.3 | 0.00 | 0.00 | 0.00 | 98 | 1010.7 |
| 20260502115928 | 20 | 193 | 6.4 | 11.3 | 0.00 | 0.00 | 0.00 | 98 | 1010.7 |
| 20260502115812 | 20 | 193 | 6.4 | 11.3 | 0.00 | 0.00 | 0.00 | 98 | 1010.7 |
| 20260502115312 | 20 | 178 | 8.0 | 12.9 | 0.00 | 0.00 | 0.00 | 98 | 1010.8 |
| 20260502114812 | 20 | 171 | 8.0 | 14.5 | 0.00 | 0.00 | 0.00 | 98 | 1010.7 |
| 20260502114312 | 20 | 153 | 8.0 | 16.1 | 0.00 | 0.00 | 0.00 | 98 | 1010.8 |
| 20260502113812 | 20 | 149 | 9.7 | 17.7 | 0.00 | 0.00 | 0.00 | 98 | 1010.8 |
| 20260502113346 | 20 | 121 | 8.0 | 12.9 | 0.00 | 0.00 | 0.00 | 98 | 1010.8 |
| 20260502113312 | 20 | 146 | 9.7 | 16.1 | 0.00 | 0.00 | 0.00 | 98 | 1010.8 |
| 20260502113111 | 20 | 121 | 8.0 | 12.9 | 0.00 | 0.00 | 0.00 | 98 | 1010.8 |
| 20260502112812 | 20 | 121 | 8.0 | 12.9 | 0.00 | 0.00 | 0.00 | 98 | 1010.8 |
| 20260502112625 | 19 | 157 | 9.7 | 16.1 | 0.00 | 0.00 | 0.00 | 97 | 1010.5 |
| 20260502112312 | 19 | 137 | 9.7 | 16.1 | 0.00 | 0.00 | 0.00 | 98 | 1010.8 |
| 20260502111812 | 19 | 157 | 9.7 | 16.1 | 0.00 | 0.00 | 0.00 | 97 | 1010.5 |
| 20260502111519 | 19 | 142 | 8.0 | 12.9 | 0.00 | 0.00 | 0.00 | 97 | 1010.3 |
| 20260502111312 | 19 | 148 | 6.4 | 12.9 | 0.00 | 0.00 | 0.00 | 97 | 1010.5 |
| 20260502110812 | 19 | 158 | 6.4 | 9.7 | 0.00 | 0.00 | 0.00 | 97 | 1010.5 |
| 20260502110312 | 19 | 146 | 6.4 | 14.5 | 0.00 | 0.00 | 0.00 | 97 | 1010.4 |
| 20260502105812 | 19 | 156 | 6.4 | 11.3 | 0.00 | 0.00 | 0.00 | 97 | 1010.4 |
| 20260502105312 | 19 | 142 | 8.0 | 12.9 | 0.00 | 0.00 | 0.00 | 97 | 1010.3 |
| 20260502104934 | 19 | 153 | 8.0 | 14.5 | 0.00 | 0.00 | 0.00 | 97 | 1010.4 |
| 20260502104812 | 19 | 153 | 8.0 | 14.5 | 0.00 | 0.00 | 0.00 | 97 | 1010.4 |
| 20260502104312 | 19 | 139 | 8.0 | 14.5 | 0.00 | 0.00 | 0.00 | 97 | 1010.4 |
| 20260502103812 | 19 | 157 | 9.7 | 16.1 | 0.00 | 0.00 | 0.00 | 97 | 1010.3 |
| 20260502103712 | 19 | 142 | 9.7 | 16.1 | 0.00 | 0.00 | 0.00 | 97 | 1010.2 |
| 20260502103312 | 19 | 142 | 9.7 | 16.1 | 0.00 | 0.00 | 0.00 | 97 | 1010.2 |
| 20260502102812 | 19 | 129 | 11.3 | 14.5 | 0.00 | 0.00 | 0.00 | 97 | 1010.1 |
| 20260502102345 | 19 | 150 | 11.3 | 14.5 | 0.00 | 0.00 | 0.00 | 97 | 1010.1 |
| 20260502102312 | 19 | 150 | 11.3 | 14.5 | 0.00 | 0.00 | 0.00 | 97 | 1010.1 |
| 20260502101812 | 19 | 140 | 11.3 | 16.1 | 0.00 | 0.00 | 0.00 | 97 | 1010.0 |
| 20260502101312 | 20 | 134 | 9.7 | 14.5 | 0.00 | 0.00 | 0.00 | 97 | 1010.0 |
| 20260502100813 | 20 | 139 | 6.4 | 12.9 | 0.00 | 0.00 | 0.00 | 97 | 1010.2 |
| 20260502100313 | 20 | 142 | 6.4 | 9.7 | 0.00 | 0.00 | 0.00 | 97 | 1010.3 |
| 20260502091313 | 18 | 133 | 3.2 | 4.8 | 0.00 | 0.00 | 0.00 | 97 | 1010.7 |
| 20260502090813 | 18 | 141 | 3.2 | 3.2 | 0.00 | 0.00 | 0.00 | 96 | 1010.8 |
| 20260502090313 | 18 | 142 | 3.2 | 4.8 | 0.00 | 0.00 | 0.00 | 96 | 1010.8 |